sensor_id;sensor_type;location;lat;lon;timestamp;P1;durP1;ratioP1;P2;durP2;ratioP2
56517;SDS011;42419;48.760;2.322;2022-11-20T00:02:09;4.60;;;3.20;;
56517;SDS011;42419;48.760;2.322;2022-11-20T00:04:34;8.50;;;3.13;;
56517;SDS011;42419;48.760;2.322;2022-11-20T00:07:00;6.70;;;4.00;;
56517;SDS011;42419;48.760;2.322;2022-11-20T00:09:25;6.67;;;3.00;;
56517;SDS011;42419;48.760;2.322;2022-11-20T00:11:50;5.63;;;3.13;;
56517;SDS011;42419;48.760;2.322;2022-11-20T00:14:15;4.97;;;3.10;;
56517;SDS011;42419;48.760;2.322;2022-11-20T00:16:41;6.50;;;3.17;;
56517;SDS011;42419;48.760;2.322;2022-11-20T00:19:07;5.87;;;3.30;;
56517;SDS011;42419;48.760;2.322;2022-11-20T00:21:32;4.07;;;3.60;;
56517;SDS011;42419;48.760;2.322;2022-11-20T00:23:57;3.67;;;2.53;;
56517;SDS011;42419;48.760;2.322;2022-11-20T00:26:24;4.23;;;2.73;;
56517;SDS011;42419;48.760;2.322;2022-11-20T00:28:51;4.67;;;2.70;;
56517;SDS011;42419;48.760;2.322;2022-11-20T00:31:18;3.30;;;2.90;;
56517;SDS011;42419;48.760;2.322;2022-11-20T00:33:44;5.20;;;3.17;;
56517;SDS011;42419;48.760;2.322;2022-11-20T00:36:11;3.70;;;2.77;;
56517;SDS011;42419;48.760;2.322;2022-11-20T00:38:38;4.00;;;2.67;;
56517;SDS011;42419;48.760;2.322;2022-11-20T00:41:05;3.90;;;2.70;;
56517;SDS011;42419;48.760;2.322;2022-11-20T00:43:34;2.67;;;2.47;;
56517;SDS011;42419;48.760;2.322;2022-11-20T00:48:33;4.03;;;2.60;;
56517;SDS011;42419;48.760;2.322;2022-11-20T00:50:58;3.60;;;2.60;;
56517;SDS011;42419;48.760;2.322;2022-11-20T00:53:24;3.23;;;2.60;;
56517;SDS011;42419;48.760;2.322;2022-11-20T00:55:56;3.83;;;2.40;;
56517;SDS011;42419;48.760;2.322;2022-11-20T00:58:28;5.07;;;3.30;;
56517;SDS011;42419;48.760;2.322;2022-11-20T01:03:32;4.07;;;2.70;;
56517;SDS011;42419;48.760;2.322;2022-11-20T01:08:41;3.83;;;3.07;;
56517;SDS011;42419;48.760;2.322;2022-11-20T01:11:08;4.00;;;2.53;;
56517;SDS011;42419;48.760;2.322;2022-11-20T01:13:41;3.87;;;2.70;;
56517;SDS011;42419;48.760;2.322;2022-11-20T01:18:44;3.40;;;2.37;;
56517;SDS011;42419;48.760;2.322;2022-11-20T01:21:12;3.20;;;2.43;;
56517;SDS011;42419;48.760;2.322;2022-11-20T01:23:42;3.37;;;2.63;;
56517;SDS011;42419;48.760;2.322;2022-11-20T01:26:09;2.77;;;2.33;;
56517;SDS011;42419;48.760;2.322;2022-11-20T01:28:39;4.00;;;2.70;;
56517;SDS011;42419;48.760;2.322;2022-11-20T01:31:12;3.67;;;2.67;;
56517;SDS011;42419;48.760;2.322;2022-11-20T01:33:40;4.10;;;2.73;;
56517;SDS011;42419;48.760;2.322;2022-11-20T01:36:06;2.73;;;2.20;;
56517;SDS011;42419;48.760;2.322;2022-11-20T01:38:32;3.73;;;2.60;;
56517;SDS011;42419;48.760;2.322;2022-11-20T01:40:58;2.67;;;2.37;;
56517;SDS011;42419;48.760;2.322;2022-11-20T01:43:23;2.93;;;2.50;;
56517;SDS011;42419;48.760;2.322;2022-11-20T01:48:25;2.20;;;2.00;;
56517;SDS011;42419;48.760;2.322;2022-11-20T01:50:55;3.50;;;2.50;;
56517;SDS011;42419;48.760;2.322;2022-11-20T01:53:23;2.63;;;2.37;;
56517;SDS011;42419;48.760;2.322;2022-11-20T01:55:53;3.13;;;2.50;;
56517;SDS011;42419;48.760;2.322;2022-11-20T01:58:20;3.10;;;2.50;;
56517;SDS011;42419;48.760;2.322;2022-11-20T02:00:50;4.13;;;2.37;;
56517;SDS011;42419;48.760;2.322;2022-11-20T02:03:16;4.00;;;2.30;;
56517;SDS011;42419;48.760;2.322;2022-11-20T02:06:27;2.87;;;2.27;;
56517;SDS011;42419;48.760;2.322;2022-11-20T02:08:46;2.57;;;2.20;;
56517;SDS011;42419;48.760;2.322;2022-11-20T02:11:11;3.10;;;2.70;;
56517;SDS011;42419;48.760;2.322;2022-11-20T02:13:38;3.40;;;2.47;;
56517;SDS011;42419;48.760;2.322;2022-11-20T02:16:31;2.40;;;1.90;;
56517;SDS011;42419;48.760;2.322;2022-11-20T02:19:03;3.00;;;2.67;;
56517;SDS011;42419;48.760;2.322;2022-11-20T02:24:18;3.10;;;2.30;;
56517;SDS011;42419;48.760;2.322;2022-11-20T02:26:56;2.90;;;2.03;;
56517;SDS011;42419;48.760;2.322;2022-11-20T02:29:36;3.03;;;2.30;;
56517;SDS011;42419;48.760;2.322;2022-11-20T02:32:17;2.10;;;1.90;;
56517;SDS011;42419;48.760;2.322;2022-11-20T02:34:43;2.50;;;2.30;;
56517;SDS011;42419;48.760;2.322;2022-11-20T02:37:08;1.87;;;1.70;;
56517;SDS011;42419;48.760;2.322;2022-11-20T02:39:34;2.63;;;2.00;;
56517;SDS011;42419;48.760;2.322;2022-11-20T02:42:00;2.60;;;2.20;;
56517;SDS011;42419;48.760;2.322;2022-11-20T02:44:27;3.30;;;2.43;;
56517;SDS011;42419;48.760;2.322;2022-11-20T02:46:52;2.97;;;2.00;;
56517;SDS011;42419;48.760;2.322;2022-11-20T02:49:17;2.57;;;2.37;;
56517;SDS011;42419;48.760;2.322;2022-11-20T02:51:43;2.87;;;2.40;;
56517;SDS011;42419;48.760;2.322;2022-11-20T02:54:08;2.90;;;2.37;;
56517;SDS011;42419;48.760;2.322;2022-11-20T02:56:33;2.60;;;2.20;;
56517;SDS011;42419;48.760;2.322;2022-11-20T02:58:59;3.00;;;2.10;;
56517;SDS011;42419;48.760;2.322;2022-11-20T03:01:24;2.53;;;2.30;;
56517;SDS011;42419;48.760;2.322;2022-11-20T03:03:50;2.43;;;2.00;;
56517;SDS011;42419;48.760;2.322;2022-11-20T03:06:16;2.30;;;2.10;;
56517;SDS011;42419;48.760;2.322;2022-11-20T03:08:42;2.50;;;2.30;;
56517;SDS011;42419;48.760;2.322;2022-11-20T03:11:07;3.70;;;2.33;;
56517;SDS011;42419;48.760;2.322;2022-11-20T03:13:33;4.50;;;2.37;;
56517;SDS011;42419;48.760;2.322;2022-11-20T03:16:04;2.80;;;2.10;;
56517;SDS011;42419;48.760;2.322;2022-11-20T03:18:37;2.40;;;2.20;;
56517;SDS011;42419;48.760;2.322;2022-11-20T03:21:03;2.27;;;2.03;;
56517;SDS011;42419;48.760;2.322;2022-11-20T03:23:29;2.43;;;2.00;;
56517;SDS011;42419;48.760;2.322;2022-11-20T03:26:06;3.00;;;2.10;;
56517;SDS011;42419;48.760;2.322;2022-11-20T03:28:36;3.43;;;2.47;;
56517;SDS011;42419;48.760;2.322;2022-11-20T03:31:44;2.40;;;1.90;;
56517;SDS011;42419;48.760;2.322;2022-11-20T03:33:52;2.23;;;1.97;;
56517;SDS011;42419;48.760;2.322;2022-11-20T03:36:18;2.20;;;1.93;;
56517;SDS011;42419;48.760;2.322;2022-11-20T03:38:45;2.47;;;1.80;;
56517;SDS011;42419;48.760;2.322;2022-11-20T03:41:11;3.00;;;2.20;;
56517;SDS011;42419;48.760;2.322;2022-11-20T03:43:39;2.67;;;1.87;;
56517;SDS011;42419;48.760;2.322;2022-11-20T03:46:04;1.70;;;1.60;;
56517;SDS011;42419;48.760;2.322;2022-11-20T03:48:30;2.67;;;2.33;;
56517;SDS011;42419;48.760;2.322;2022-11-20T03:51:10;2.80;;;2.07;;
56517;SDS011;42419;48.760;2.322;2022-11-20T03:53:38;2.23;;;2.03;;
56517;SDS011;42419;48.760;2.322;2022-11-20T03:56:05;2.87;;;2.00;;
56517;SDS011;42419;48.760;2.322;2022-11-20T03:58:34;3.07;;;2.20;;
56517;SDS011;42419;48.760;2.322;2022-11-20T04:01:08;2.20;;;1.90;;
56517;SDS011;42419;48.760;2.322;2022-11-20T04:03:39;3.17;;;2.10;;
56517;SDS011;42419;48.760;2.322;2022-11-20T04:06:13;2.83;;;2.17;;
56517;SDS011;42419;48.760;2.322;2022-11-20T04:08:40;3.20;;;2.27;;
56517;SDS011;42419;48.760;2.322;2022-11-20T04:11:13;2.20;;;2.00;;
56517;SDS011;42419;48.760;2.322;2022-11-20T04:13:40;2.10;;;1.90;;
56517;SDS011;42419;48.760;2.322;2022-11-20T04:16:07;1.90;;;1.70;;
56517;SDS011;42419;48.760;2.322;2022-11-20T04:18:34;2.10;;;1.80;;
56517;SDS011;42419;48.760;2.322;2022-11-20T04:20:59;2.10;;;1.90;;
56517;SDS011;42419;48.760;2.322;2022-11-20T04:23:25;2.00;;;1.90;;
56517;SDS011;42419;48.760;2.322;2022-11-20T04:25:51;2.00;;;1.80;;
56517;SDS011;42419;48.760;2.322;2022-11-20T04:28:17;2.60;;;2.23;;
56517;SDS011;42419;48.760;2.322;2022-11-20T04:30:42;3.83;;;2.20;;
56517;SDS011;42419;48.760;2.322;2022-11-20T04:33:08;2.67;;;2.00;;
56517;SDS011;42419;48.760;2.322;2022-11-20T04:35:34;5.30;;;2.30;;
56517;SDS011;42419;48.760;2.322;2022-11-20T04:38:00;1.90;;;1.73;;
56517;SDS011;42419;48.760;2.322;2022-11-20T04:40:27;2.30;;;2.10;;
56517;SDS011;42419;48.760;2.322;2022-11-20T04:42:53;2.07;;;1.77;;
56517;SDS011;42419;48.760;2.322;2022-11-20T04:45:19;3.13;;;2.10;;
56517;SDS011;42419;48.760;2.322;2022-11-20T04:47:44;2.37;;;2.00;;
56517;SDS011;42419;48.760;2.322;2022-11-20T04:50:09;4.90;;;2.27;;
56517;SDS011;42419;48.760;2.322;2022-11-20T04:52:35;2.53;;;2.30;;
56517;SDS011;42419;48.760;2.322;2022-11-20T04:55:00;2.30;;;1.57;;
56517;SDS011;42419;48.760;2.322;2022-11-20T04:57:25;2.33;;;2.03;;
56517;SDS011;42419;48.760;2.322;2022-11-20T04:59:51;2.27;;;2.07;;
56517;SDS011;42419;48.760;2.322;2022-11-20T05:02:16;3.67;;;2.03;;
56517;SDS011;42419;48.760;2.322;2022-11-20T05:04:42;2.77;;;2.20;;
56517;SDS011;42419;48.760;2.322;2022-11-20T05:07:07;1.70;;;1.60;;
56517;SDS011;42419;48.760;2.322;2022-11-20T05:09:32;2.00;;;1.80;;
56517;SDS011;42419;48.760;2.322;2022-11-20T05:11:58;2.70;;;2.10;;
56517;SDS011;42419;48.760;2.322;2022-11-20T05:14:23;2.10;;;1.90;;
56517;SDS011;42419;48.760;2.322;2022-11-20T05:16:48;2.33;;;1.87;;
56517;SDS011;42419;48.760;2.322;2022-11-20T05:19:14;2.13;;;1.60;;
56517;SDS011;42419;48.760;2.322;2022-11-20T05:21:39;1.97;;;1.70;;
56517;SDS011;42419;48.760;2.322;2022-11-20T05:24:04;2.40;;;1.90;;
56517;SDS011;42419;48.760;2.322;2022-11-20T05:26:31;2.60;;;2.23;;
56517;SDS011;42419;48.760;2.322;2022-11-20T05:28:56;2.23;;;1.80;;
56517;SDS011;42419;48.760;2.322;2022-11-20T05:31:22;3.50;;;1.80;;
56517;SDS011;42419;48.760;2.322;2022-11-20T05:33:49;1.93;;;1.70;;
56517;SDS011;42419;48.760;2.322;2022-11-20T05:36:15;2.17;;;1.83;;
56517;SDS011;42419;48.760;2.322;2022-11-20T05:38:41;2.37;;;1.83;;
56517;SDS011;42419;48.760;2.322;2022-11-20T05:41:17;2.33;;;1.93;;
56517;SDS011;42419;48.760;2.322;2022-11-20T05:43:45;2.73;;;2.13;;
56517;SDS011;42419;48.760;2.322;2022-11-20T05:46:12;3.73;;;2.07;;
56517;SDS011;42419;48.760;2.322;2022-11-20T05:48:40;2.30;;;2.10;;
56517;SDS011;42419;48.760;2.322;2022-11-20T05:51:08;2.50;;;1.97;;
56517;SDS011;42419;48.760;2.322;2022-11-20T05:53:35;2.00;;;1.80;;
56517;SDS011;42419;48.760;2.322;2022-11-20T05:56:02;4.17;;;2.13;;
56517;SDS011;42419;48.760;2.322;2022-11-20T05:58:31;2.70;;;2.10;;
56517;SDS011;42419;48.760;2.322;2022-11-20T06:01:30;2.37;;;1.80;;
56517;SDS011;42419;48.760;2.322;2022-11-20T06:03:49;2.30;;;1.97;;
56517;SDS011;42419;48.760;2.322;2022-11-20T06:06:16;2.10;;;1.80;;
56517;SDS011;42419;48.760;2.322;2022-11-20T06:08:42;2.10;;;1.90;;
56517;SDS011;42419;48.760;2.322;2022-11-20T06:11:09;2.30;;;2.00;;
56517;SDS011;42419;48.760;2.322;2022-11-20T06:13:35;3.07;;;2.30;;
56517;SDS011;42419;48.760;2.322;2022-11-20T06:16:01;2.37;;;1.80;;
56517;SDS011;42419;48.760;2.322;2022-11-20T06:18:28;2.93;;;2.27;;
56517;SDS011;42419;48.760;2.322;2022-11-20T06:21:01;2.13;;;1.93;;
56517;SDS011;42419;48.760;2.322;2022-11-20T06:23:37;2.93;;;2.10;;
56517;SDS011;42419;48.760;2.322;2022-11-20T06:28:29;3.67;;;2.40;;
56517;SDS011;42419;48.760;2.322;2022-11-20T06:30:55;2.83;;;1.70;;
56517;SDS011;42419;48.760;2.322;2022-11-20T06:33:20;2.10;;;1.70;;
56517;SDS011;42419;48.760;2.322;2022-11-20T06:35:46;6.30;;;1.93;;
56517;SDS011;42419;48.760;2.322;2022-11-20T06:38:11;2.50;;;1.90;;
56517;SDS011;42419;48.760;2.322;2022-11-20T06:40:39;3.03;;;1.97;;
56517;SDS011;42419;48.760;2.322;2022-11-20T06:43:05;4.10;;;2.30;;
56517;SDS011;42419;48.760;2.322;2022-11-20T06:45:30;2.13;;;1.90;;
56517;SDS011;42419;48.760;2.322;2022-11-20T06:47:57;5.40;;;2.50;;
56517;SDS011;42419;48.760;2.322;2022-11-20T06:50:23;3.60;;;2.20;;
56517;SDS011;42419;48.760;2.322;2022-11-20T06:52:48;2.17;;;1.80;;
56517;SDS011;42419;48.760;2.322;2022-11-20T06:55:13;3.90;;;2.53;;
56517;SDS011;42419;48.760;2.322;2022-11-20T06:57:39;3.40;;;1.90;;
56517;SDS011;42419;48.760;2.322;2022-11-20T07:00:04;3.33;;;2.47;;
56517;SDS011;42419;48.760;2.322;2022-11-20T07:02:30;3.07;;;2.10;;
56517;SDS011;42419;48.760;2.322;2022-11-20T07:04:55;2.93;;;2.10;;
56517;SDS011;42419;48.760;2.322;2022-11-20T07:07:21;2.03;;;1.67;;
56517;SDS011;42419;48.760;2.322;2022-11-20T07:09:46;2.20;;;2.00;;
56517;SDS011;42419;48.760;2.322;2022-11-20T07:12:11;4.80;;;1.90;;
56517;SDS011;42419;48.760;2.322;2022-11-20T07:14:40;2.10;;;1.90;;
56517;SDS011;42419;48.760;2.322;2022-11-20T07:17:05;2.53;;;2.10;;
56517;SDS011;42419;48.760;2.322;2022-11-20T07:19:30;5.67;;;2.20;;
56517;SDS011;42419;48.760;2.322;2022-11-20T07:21:55;3.60;;;1.90;;
56517;SDS011;42419;48.760;2.322;2022-11-20T07:24:21;2.30;;;2.10;;
56517;SDS011;42419;48.760;2.322;2022-11-20T07:26:46;2.80;;;1.80;;
56517;SDS011;42419;48.760;2.322;2022-11-20T07:29:14;2.50;;;2.30;;
56517;SDS011;42419;48.760;2.322;2022-11-20T07:31:40;4.40;;;2.50;;
56517;SDS011;42419;48.760;2.322;2022-11-20T07:34:05;2.53;;;2.30;;
56517;SDS011;42419;48.760;2.322;2022-11-20T07:36:30;4.30;;;2.80;;
56517;SDS011;42419;48.760;2.322;2022-11-20T07:38:56;4.37;;;2.37;;
56517;SDS011;42419;48.760;2.322;2022-11-20T07:41:21;3.27;;;2.30;;
56517;SDS011;42419;48.760;2.322;2022-11-20T07:43:46;3.13;;;2.70;;
56517;SDS011;42419;48.760;2.322;2022-11-20T07:46:12;3.87;;;2.37;;
56517;SDS011;42419;48.760;2.322;2022-11-20T07:48:37;3.30;;;2.37;;
56517;SDS011;42419;48.760;2.322;2022-11-20T07:51:02;4.70;;;2.30;;
56517;SDS011;42419;48.760;2.322;2022-11-20T07:53:28;2.87;;;2.07;;
56517;SDS011;42419;48.760;2.322;2022-11-20T07:55:53;2.40;;;2.03;;
56517;SDS011;42419;48.760;2.322;2022-11-20T07:58:19;3.10;;;2.33;;
56517;SDS011;42419;48.760;2.322;2022-11-20T08:00:45;3.30;;;2.67;;
56517;SDS011;42419;48.760;2.322;2022-11-20T08:03:10;2.67;;;2.23;;
56517;SDS011;42419;48.760;2.322;2022-11-20T08:05:36;5.13;;;2.57;;
56517;SDS011;42419;48.760;2.322;2022-11-20T08:08:02;3.47;;;2.30;;
56517;SDS011;42419;48.760;2.322;2022-11-20T08:10:27;4.47;;;2.00;;
56517;SDS011;42419;48.760;2.322;2022-11-20T08:12:53;2.87;;;2.27;;
56517;SDS011;42419;48.760;2.322;2022-11-20T08:15:37;9.50;;;2.30;;
56517;SDS011;42419;48.760;2.322;2022-11-20T08:18:05;4.03;;;2.80;;
56517;SDS011;42419;48.760;2.322;2022-11-20T08:20:32;6.57;;;2.67;;
56517;SDS011;42419;48.760;2.322;2022-11-20T08:23:03;3.10;;;2.60;;
56517;SDS011;42419;48.760;2.322;2022-11-20T08:25:30;5.23;;;2.57;;
56517;SDS011;42419;48.760;2.322;2022-11-20T08:27:58;3.10;;;2.80;;
56517;SDS011;42419;48.760;2.322;2022-11-20T08:30:24;3.20;;;2.40;;
56517;SDS011;42419;48.760;2.322;2022-11-20T08:32:50;4.60;;;2.80;;
56517;SDS011;42419;48.760;2.322;2022-11-20T08:35:15;6.60;;;2.60;;
56517;SDS011;42419;48.760;2.322;2022-11-20T08:37:41;5.90;;;2.57;;
56517;SDS011;42419;48.760;2.322;2022-11-20T08:40:10;6.57;;;3.37;;
56517;SDS011;42419;48.760;2.322;2022-11-20T08:42:36;5.40;;;2.90;;
56517;SDS011;42419;48.760;2.322;2022-11-20T08:45:02;5.40;;;3.10;;
56517;SDS011;42419;48.760;2.322;2022-11-20T08:47:27;5.40;;;2.77;;
56517;SDS011;42419;48.760;2.322;2022-11-20T08:49:53;3.13;;;2.73;;
56517;SDS011;42419;48.760;2.322;2022-11-20T08:52:18;4.67;;;3.10;;
56517;SDS011;42419;48.760;2.322;2022-11-20T08:54:44;4.13;;;3.00;;
56517;SDS011;42419;48.760;2.322;2022-11-20T08:57:09;3.53;;;2.87;;
56517;SDS011;42419;48.760;2.322;2022-11-20T08:59:34;5.47;;;3.17;;
56517;SDS011;42419;48.760;2.322;2022-11-20T09:02:00;4.10;;;2.90;;
56517;SDS011;42419;48.760;2.322;2022-11-20T09:04:25;4.67;;;3.23;;
56517;SDS011;42419;48.760;2.322;2022-11-20T09:06:50;4.50;;;2.83;;
56517;SDS011;42419;48.760;2.322;2022-11-20T09:09:16;4.10;;;2.90;;
56517;SDS011;42419;48.760;2.322;2022-11-20T09:11:43;4.97;;;2.63;;
56517;SDS011;42419;48.760;2.322;2022-11-20T09:14:08;3.87;;;2.77;;
56517;SDS011;42419;48.760;2.322;2022-11-20T09:16:33;6.17;;;3.27;;
56517;SDS011;42419;48.760;2.322;2022-11-20T09:18:59;6.00;;;3.07;;
56517;SDS011;42419;48.760;2.322;2022-11-20T09:21:24;4.37;;;2.70;;
56517;SDS011;42419;48.760;2.322;2022-11-20T09:23:50;5.87;;;2.73;;
56517;SDS011;42419;48.760;2.322;2022-11-20T09:26:15;3.93;;;2.47;;
56517;SDS011;42419;48.760;2.322;2022-11-20T09:28:41;4.93;;;2.90;;
56517;SDS011;42419;48.760;2.322;2022-11-20T09:31:07;4.80;;;3.03;;
56517;SDS011;42419;48.760;2.322;2022-11-20T09:33:34;3.73;;;2.40;;
56517;SDS011;42419;48.760;2.322;2022-11-20T09:36:00;4.03;;;2.73;;
56517;SDS011;42419;48.760;2.322;2022-11-20T09:38:25;4.07;;;3.17;;
56517;SDS011;42419;48.760;2.322;2022-11-20T09:49:49;4.20;;;2.80;;
56517;SDS011;42419;48.760;2.322;2022-11-20T09:54:44;4.90;;;3.23;;
56517;SDS011;42419;48.760;2.322;2022-11-20T09:57:10;3.30;;;2.40;;
56517;SDS011;42419;48.760;2.322;2022-11-20T09:59:53;3.10;;;2.40;;
56517;SDS011;42419;48.760;2.322;2022-11-20T10:04:53;4.20;;;2.67;;
56517;SDS011;42419;48.760;2.322;2022-11-20T10:16:14;4.20;;;2.70;;
56517;SDS011;42419;48.760;2.322;2022-11-20T10:18:57;2.90;;;2.60;;
56517;SDS011;42419;48.760;2.322;2022-11-20T10:27:02;3.30;;;2.50;;
56517;SDS011;42419;48.760;2.322;2022-11-20T10:30:09;3.67;;;2.33;;
56517;SDS011;42419;48.760;2.322;2022-11-20T10:32:41;5.40;;;2.50;;
56517;SDS011;42419;48.760;2.322;2022-11-20T10:38:06;4.83;;;2.40;;
56517;SDS011;42419;48.760;2.322;2022-11-20T10:40:39;3.63;;;2.53;;
56517;SDS011;42419;48.760;2.322;2022-11-20T10:45:48;4.53;;;2.30;;
56517;SDS011;42419;48.760;2.322;2022-11-20T10:48:25;4.47;;;2.40;;
56517;SDS011;42419;48.760;2.322;2022-11-20T10:51:01;4.30;;;2.60;;
56517;SDS011;42419;48.760;2.322;2022-11-20T10:53:50;2.13;;;1.93;;
56517;SDS011;42419;48.760;2.322;2022-11-20T10:56:41;3.90;;;2.20;;
56517;SDS011;42419;48.760;2.322;2022-11-20T11:01:48;4.70;;;2.73;;
56517;SDS011;42419;48.760;2.322;2022-11-20T11:04:33;3.67;;;2.00;;
56517;SDS011;42419;48.760;2.322;2022-11-20T11:07:15;2.70;;;2.17;;
56517;SDS011;42419;48.760;2.322;2022-11-20T11:09:49;2.90;;;2.10;;
56517;SDS011;42419;48.760;2.322;2022-11-20T11:12:18;4.83;;;2.13;;
56517;SDS011;42419;48.760;2.322;2022-11-20T11:14:55;2.67;;;2.27;;
56517;SDS011;42419;48.760;2.322;2022-11-20T11:17:23;3.10;;;2.00;;
56517;SDS011;42419;48.760;2.322;2022-11-20T11:22:42;2.40;;;2.10;;
56517;SDS011;42419;48.760;2.322;2022-11-20T11:25:18;2.20;;;2.00;;
56517;SDS011;42419;48.760;2.322;2022-11-20T11:27:52;2.40;;;2.20;;
56517;SDS011;42419;48.760;2.322;2022-11-20T11:30:21;2.20;;;2.00;;
56517;SDS011;42419;48.760;2.322;2022-11-20T11:32:48;2.40;;;1.90;;
56517;SDS011;42419;48.760;2.322;2022-11-20T11:38:12;4.40;;;2.73;;
56517;SDS011;42419;48.760;2.322;2022-11-20T11:40:42;2.50;;;2.13;;
56517;SDS011;42419;48.760;2.322;2022-11-20T11:43:16;3.90;;;2.30;;
56517;SDS011;42419;48.760;2.322;2022-11-20T11:46:03;2.30;;;2.10;;
56517;SDS011;42419;48.760;2.322;2022-11-20T11:54:15;2.30;;;2.10;;
56517;SDS011;42419;48.760;2.322;2022-11-20T11:56:45;2.83;;;2.20;;
56517;SDS011;42419;48.760;2.322;2022-11-20T11:59:12;2.90;;;1.97;;
56517;SDS011;42419;48.760;2.322;2022-11-20T12:01:50;2.90;;;2.17;;
56517;SDS011;42419;48.760;2.322;2022-11-20T12:04:34;2.13;;;1.87;;
56517;SDS011;42419;48.760;2.322;2022-11-20T12:07:10;2.70;;;1.87;;
56517;SDS011;42419;48.760;2.322;2022-11-20T12:09:45;2.10;;;1.90;;
56517;SDS011;42419;48.760;2.322;2022-11-20T12:12:22;2.40;;;2.20;;
56517;SDS011;42419;48.760;2.322;2022-11-20T12:14:57;1.97;;;1.63;;
56517;SDS011;42419;48.760;2.322;2022-11-20T12:17:23;1.80;;;1.70;;
56517;SDS011;42419;48.760;2.322;2022-11-20T12:19:49;4.63;;;2.20;;
56517;SDS011;42419;48.760;2.322;2022-11-20T12:25:27;2.33;;;2.13;;
56517;SDS011;42419;48.760;2.322;2022-11-20T12:36:36;2.03;;;1.67;;
56517;SDS011;42419;48.760;2.322;2022-11-20T12:44:50;1.97;;;1.77;;
56517;SDS011;42419;48.760;2.322;2022-11-20T13:01:00;1.87;;;1.60;;
56517;SDS011;42419;48.760;2.322;2022-11-20T13:06:49;1.90;;;1.70;;
56517;SDS011;42419;48.760;2.322;2022-11-20T13:09:15;3.57;;;2.00;;
56517;SDS011;42419;48.760;2.322;2022-11-20T13:11:53;2.50;;;1.80;;
56517;SDS011;42419;48.760;2.322;2022-11-20T13:17:24;2.37;;;2.17;;
56517;SDS011;42419;48.760;2.322;2022-11-20T13:19:53;2.27;;;2.07;;
56517;SDS011;42419;48.760;2.322;2022-11-20T13:22:26;2.20;;;1.80;;
56517;SDS011;42419;48.760;2.322;2022-11-20T13:24:53;1.77;;;1.67;;
56517;SDS011;42419;48.760;2.322;2022-11-20T13:27:20;1.97;;;1.77;;
56517;SDS011;42419;48.760;2.322;2022-11-20T13:32:50;2.83;;;1.90;;
56517;SDS011;42419;48.760;2.322;2022-11-20T13:38:20;1.90;;;1.63;;
56517;SDS011;42419;48.760;2.322;2022-11-20T13:43:26;2.80;;;2.00;;
56517;SDS011;42419;48.760;2.322;2022-11-20T13:46:07;5.30;;;1.77;;
56517;SDS011;42419;48.760;2.322;2022-11-20T13:48:41;2.00;;;1.73;;
56517;SDS011;42419;48.760;2.322;2022-11-20T14:00:11;2.10;;;1.70;;
56517;SDS011;42419;48.760;2.322;2022-11-20T14:02:40;2.10;;;1.90;;
56517;SDS011;42419;48.760;2.322;2022-11-20T14:05:11;1.87;;;1.60;;
56517;SDS011;42419;48.760;2.322;2022-11-20T14:07:45;2.00;;;1.80;;
56517;SDS011;42419;48.760;2.322;2022-11-20T14:10:46;1.70;;;1.60;;
56517;SDS011;42419;48.760;2.322;2022-11-20T14:13:15;2.53;;;1.90;;
56517;SDS011;42419;48.760;2.322;2022-11-20T14:15:43;2.20;;;1.90;;
56517;SDS011;42419;48.760;2.322;2022-11-20T14:18:18;3.30;;;1.80;;
56517;SDS011;42419;48.760;2.322;2022-11-20T14:20:46;3.17;;;1.80;;
56517;SDS011;42419;48.760;2.322;2022-11-20T14:23:12;6.23;;;2.47;;
56517;SDS011;42419;48.760;2.322;2022-11-20T14:25:47;1.80;;;1.70;;
56517;SDS011;42419;48.760;2.322;2022-11-20T14:28:18;2.57;;;2.00;;
56517;SDS011;42419;48.760;2.322;2022-11-20T14:30:49;3.40;;;2.03;;
56517;SDS011;42419;48.760;2.322;2022-11-20T14:33:15;5.00;;;2.27;;
56517;SDS011;42419;48.760;2.322;2022-11-20T14:35:48;2.30;;;2.03;;
56517;SDS011;42419;48.760;2.322;2022-11-20T14:38:16;3.23;;;2.13;;
56517;SDS011;42419;48.760;2.322;2022-11-20T14:40:45;2.63;;;2.00;;
56517;SDS011;42419;48.760;2.322;2022-11-20T14:43:17;3.10;;;2.20;;
56517;SDS011;42419;48.760;2.322;2022-11-20T14:46:08;5.60;;;2.00;;
56517;SDS011;42419;48.760;2.322;2022-11-20T14:51:09;2.00;;;1.80;;
56517;SDS011;42419;48.760;2.322;2022-11-20T14:53:36;3.20;;;2.10;;
56517;SDS011;42419;48.760;2.322;2022-11-20T14:56:02;2.03;;;1.73;;
56517;SDS011;42419;48.760;2.322;2022-11-20T14:58:29;2.90;;;2.10;;
56517;SDS011;42419;48.760;2.322;2022-11-20T15:00:57;2.07;;;1.87;;
56517;SDS011;42419;48.760;2.322;2022-11-20T15:03:34;4.37;;;1.90;;
56517;SDS011;42419;48.760;2.322;2022-11-20T15:06:01;2.40;;;2.00;;
56517;SDS011;42419;48.760;2.322;2022-11-20T15:08:27;3.13;;;1.90;;
56517;SDS011;42419;48.760;2.322;2022-11-20T15:10:53;1.97;;;1.77;;
56517;SDS011;42419;48.760;2.322;2022-11-20T15:13:32;4.53;;;2.57;;
56517;SDS011;42419;48.760;2.322;2022-11-20T15:16:00;3.27;;;2.00;;
56517;SDS011;42419;48.760;2.322;2022-11-20T15:18:27;4.90;;;2.33;;
56517;SDS011;42419;48.760;2.322;2022-11-20T15:20:56;4.53;;;2.47;;
56517;SDS011;42419;48.760;2.322;2022-11-20T15:23:25;2.13;;;1.80;;
56517;SDS011;42419;48.760;2.322;2022-11-20T15:25:52;3.50;;;2.30;;
56517;SDS011;42419;48.760;2.322;2022-11-20T15:30:43;2.07;;;1.80;;
56517;SDS011;42419;48.760;2.322;2022-11-20T15:33:09;2.30;;;1.90;;
56517;SDS011;42419;48.760;2.322;2022-11-20T15:35:35;2.70;;;2.23;;
56517;SDS011;42419;48.760;2.322;2022-11-20T15:38:00;4.77;;;2.83;;
56517;SDS011;42419;48.760;2.322;2022-11-20T15:40:26;1.97;;;1.77;;
56517;SDS011;42419;48.760;2.322;2022-11-20T15:42:51;4.10;;;2.40;;
56517;SDS011;42419;48.760;2.322;2022-11-20T15:45:29;4.53;;;2.60;;
56517;SDS011;42419;48.760;2.322;2022-11-20T15:47:59;5.13;;;1.90;;
56517;SDS011;42419;48.760;2.322;2022-11-20T15:50:27;4.23;;;2.27;;
56517;SDS011;42419;48.760;2.322;2022-11-20T15:52:59;2.30;;;2.10;;
56517;SDS011;42419;48.760;2.322;2022-11-20T15:55:24;2.80;;;2.20;;
56517;SDS011;42419;48.760;2.322;2022-11-20T15:57:50;3.10;;;1.97;;
56517;SDS011;42419;48.760;2.322;2022-11-20T16:00:15;2.60;;;2.03;;
56517;SDS011;42419;48.760;2.322;2022-11-20T16:02:41;2.60;;;2.07;;
56517;SDS011;42419;48.760;2.322;2022-11-20T16:05:09;3.03;;;2.30;;
56517;SDS011;42419;48.760;2.322;2022-11-20T16:07:37;3.60;;;1.93;;
56517;SDS011;42419;48.760;2.322;2022-11-20T16:10:03;2.73;;;2.00;;
56517;SDS011;42419;48.760;2.322;2022-11-20T16:12:29;2.03;;;1.70;;
56517;SDS011;42419;48.760;2.322;2022-11-20T16:15:13;2.30;;;2.10;;
56517;SDS011;42419;48.760;2.322;2022-11-20T16:17:56;2.43;;;2.00;;
56517;SDS011;42419;48.760;2.322;2022-11-20T16:20:22;2.63;;;2.00;;
56517;SDS011;42419;48.760;2.322;2022-11-20T16:22:47;2.50;;;1.90;;
56517;SDS011;42419;48.760;2.322;2022-11-20T16:25:12;3.03;;;2.00;;
56517;SDS011;42419;48.760;2.322;2022-11-20T16:27:38;3.67;;;2.10;;
56517;SDS011;42419;48.760;2.322;2022-11-20T16:30:03;2.87;;;2.03;;
56517;SDS011;42419;48.760;2.322;2022-11-20T16:32:29;3.13;;;2.17;;
56517;SDS011;42419;48.760;2.322;2022-11-20T16:34:54;2.50;;;2.30;;
56517;SDS011;42419;48.760;2.322;2022-11-20T16:37:20;4.30;;;2.10;;
56517;SDS011;42419;48.760;2.322;2022-11-20T16:39:45;2.23;;;2.03;;
56517;SDS011;42419;48.760;2.322;2022-11-20T16:42:10;2.10;;;1.90;;
56517;SDS011;42419;48.760;2.322;2022-11-20T16:44:35;3.37;;;2.57;;
56517;SDS011;42419;48.760;2.322;2022-11-20T16:47:01;4.03;;;2.30;;
56517;SDS011;42419;48.760;2.322;2022-11-20T16:49:26;3.80;;;2.70;;
56517;SDS011;42419;48.760;2.322;2022-11-20T16:51:51;4.00;;;2.30;;
56517;SDS011;42419;48.760;2.322;2022-11-20T16:54:17;3.60;;;2.10;;
56517;SDS011;42419;48.760;2.322;2022-11-20T16:56:42;6.90;;;2.77;;
56517;SDS011;42419;48.760;2.322;2022-11-20T16:59:07;5.53;;;2.13;;
56517;SDS011;42419;48.760;2.322;2022-11-20T17:01:33;3.13;;;2.37;;
56517;SDS011;42419;48.760;2.322;2022-11-20T17:04:04;3.90;;;2.40;;